Stephan, South Dakota
Current Conditions -  °F | °C
As of 4:15 PM on Monday 20 Oct 2014 (Local Time) from K9V9 Reporting Station
Clear Clear  
Wind Chill: 73°   Ceiling: Unl
Heat Index: 73°   Visibility: 10mi
Dew Point: 37°   Wind: 8mph
Humidity: 27%   Direction: 170°S
Pressure: 30.01"   Gusts: NA
Location:  44.26°N, 99.44°W
Report Text: K9V9 202115Z AUTO 17007KT 10SM CLR 23/03 A3001 RMK AO2 T02260026
Loading
Personal Weather Stations






























Interactive Weather Map
Tropical Storm Tracking
New forecast layout! Learn more

10-Day Weather Forecast

Advertisements
Track Severe Weather on mobile